createdAt,value
2022-12-04T06:02:23.772Z,87.76
2022-12-04T06:07:26.235Z,87.67
2022-12-04T06:12:30.197Z,87.28
2022-12-04T06:17:32.381Z,87.81
2022-12-04T06:22:34.728Z,87.24
2022-12-04T06:27:36.973Z,87.51
2022-12-04T06:32:39.149Z,87.58
2022-12-04T06:37:41.351Z,87.13
2022-12-04T06:42:43.634Z,87.73
2022-12-04T06:47:45.822Z,88.10
2022-12-04T06:52:48.063Z,87.60
2022-12-04T06:57:50.284Z,87.67
2022-12-04T07:02:52.738Z,87.70
2022-12-04T07:07:55.079Z,87.38
2022-12-04T07:12:57.331Z,87.74
2022-12-04T07:18:00.221Z,87.71
2022-12-04T07:23:07.087Z,87.53
2022-12-04T07:28:09.734Z,87.91
2022-12-04T07:33:12.075Z,87.41
2022-12-04T07:38:14.265Z,87.65
2022-12-04T07:43:16.473Z,87.78
2022-12-04T07:48:18.842Z,87.69
2022-12-04T07:53:21.104Z,88.25
2022-12-04T07:58:23.315Z,88.18
2022-12-04T08:03:26.118Z,88.22
2022-12-04T08:08:28.386Z,87.92
2022-12-04T08:13:30.853Z,87.63
2022-12-04T08:18:33.688Z,87.77
2022-12-04T08:23:36.669Z,87.30
2022-12-04T08:28:39.528Z,87.83
2022-12-04T08:33:45.572Z,87.23
2022-12-04T08:38:48.840Z,87.66
2022-12-04T08:43:54.608Z,87.57
2022-12-04T08:48:57.840Z,87.70
2022-12-04T08:54:03.534Z,87.96
2022-12-04T08:59:06.121Z,87.70
2022-12-04T09:04:08.497Z,87.19
2022-12-04T09:09:10.970Z,87.23
2022-12-04T09:14:13.318Z,87.62
2022-12-04T09:19:15.534Z,87.63
2022-12-04T09:24:18.040Z,87.33
2022-12-04T09:29:20.278Z,87.68
2022-12-04T09:34:22.498Z,87.40
2022-12-04T09:39:24.698Z,87.28
2022-12-04T09:44:39.371Z,87.75
2022-12-04T09:49:56.835Z,87.65
2022-12-04T09:55:03.472Z,87.29
2022-12-04T10:00:07.031Z,87.41
2022-12-04T10:05:53.701Z,87.25
2022-12-04T10:11:06.387Z,87.37
2022-12-04T10:16:14.950Z,87.39
2022-12-04T10:21:31.231Z,87.50
2022-12-04T10:26:39.251Z,87.28
2022-12-04T10:31:44.855Z,87.53
2022-12-04T10:36:52.121Z,86.97
2022-12-04T10:42:22.104Z,87.20
2022-12-04T10:47:25.419Z,86.99
2022-12-04T10:52:27.942Z,86.92
2022-12-04T10:57:43.873Z,87.21
2022-12-04T11:02:46.392Z,87.04
2022-12-04T11:07:51.679Z,86.81
2022-12-04T11:13:02.852Z,87.01
2022-12-04T11:18:09.219Z,87.19
2022-12-04T11:23:16.556Z,87.15
2022-12-04T11:28:40.614Z,87.49
2022-12-04T11:33:48.172Z,87.33
2022-12-04T11:39:04.082Z,87.44
2022-12-04T11:44:07.367Z,87.29
2022-12-04T11:49:21.519Z,87.20
2022-12-04T11:54:23.676Z,87.37
2022-12-04T12:00:03.745Z,87.03
2022-12-04T12:06:06.592Z,87.21
2022-12-04T12:11:36.204Z,87.39
2022-12-04T12:16:56.672Z,86.61
2022-12-04T12:22:14.870Z,86.92
2022-12-04T12:27:23.088Z,87.29
2022-12-04T12:32:44.107Z,87.63
2022-12-04T12:38:01.382Z,87.24
2022-12-04T12:43:31.937Z,88.04
2022-12-04T12:48:58.718Z,87.83
2022-12-04T12:54:11.442Z,87.60
2022-12-04T12:59:19.405Z,87.90
2022-12-04T13:04:42.200Z,87.95
2022-12-04T13:10:06.795Z,88.27
2022-12-04T13:15:17.717Z,88.09
2022-12-04T13:20:30.288Z,88.54
2022-12-04T13:25:40.962Z,88.31
2022-12-04T13:30:59.728Z,88.35
2022-12-04T13:36:13.952Z,88.32
2022-12-04T13:41:20.338Z,89.07
2022-12-04T13:46:28.632Z,88.08
2022-12-04T13:51:37.782Z,88.41
2022-12-04T13:56:41.292Z,87.97
2022-12-04T14:01:46.771Z,88.67
2022-12-04T14:06:51.772Z,88.70
2022-12-04T14:12:01.544Z,88.91
2022-12-04T14:17:04.277Z,88.92
2022-12-04T14:22:06.619Z,88.60
2022-12-04T14:27:42.302Z,88.82
2022-12-04T14:32:46.908Z,89.50
2022-12-04T14:38:02.259Z,88.95
2022-12-04T14:43:05.340Z,88.89
2022-12-04T14:48:13.229Z,89.45
2022-12-04T14:54:09.312Z,89.36
2022-12-04T14:59:18.328Z,89.12
2022-12-04T15:04:23.486Z,89.25
2022-12-04T15:09:45.116Z,89.42
2022-12-04T15:14:50.067Z,89.72
2022-12-04T15:19:52.284Z,89.28
2022-12-04T15:24:55.951Z,89.70
2022-12-04T15:29:59.422Z,89.59
2022-12-04T15:35:09.016Z,90.02
2022-12-04T15:40:21.919Z,89.67
2022-12-04T15:45:29.540Z,89.68
2022-12-04T15:50:31.904Z,89.48
2022-12-04T15:55:47.188Z,90.06
2022-12-04T16:00:56.469Z,90.68
2022-12-04T16:06:07.480Z,90.10
2022-12-04T16:11:21.839Z,90.21
2022-12-04T16:16:24.082Z,90.33
2022-12-04T16:21:31.419Z,90.37
2022-12-04T16:26:34.078Z,90.57
2022-12-04T16:31:38.119Z,90.45
2022-12-04T16:36:41.460Z,90.32
2022-12-04T16:41:43.644Z,90.68
2022-12-04T16:46:45.967Z,90.75
2022-12-04T16:51:51.419Z,90.74
2022-12-04T16:56:53.662Z,90.18
2022-12-04T17:01:56.122Z,90.56
2022-12-04T17:06:58.415Z,90.91
2022-12-04T17:12:00.639Z,90.91
2022-12-04T17:17:02.863Z,90.72
2022-12-04T17:22:05.135Z,91.58
2022-12-04T17:27:11.806Z,91.54
2022-12-04T17:32:14.261Z,91.97
2022-12-04T17:37:16.466Z,91.63
2022-12-04T17:42:19.273Z,91.83
2022-12-04T17:47:21.574Z,91.30
2022-12-04T17:52:23.822Z,91.83
2022-12-04T17:57:26.070Z,91.73
2022-12-04T18:02:28.389Z,91.72
2022-12-04T18:07:31.473Z,91.39
2022-12-04T18:12:33.752Z,91.61
2022-12-04T18:17:37.048Z,91.69
2022-12-04T18:22:39.253Z,91.45
2022-12-04T18:27:42.153Z,92.07
2022-12-04T18:32:45.147Z,92.02
2022-12-04T18:37:47.706Z,91.81
2022-12-04T18:42:51.836Z,91.98
2022-12-04T18:47:54.050Z,92.17
2022-12-04T18:53:14.688Z,92.86
2022-12-04T18:58:17.775Z,92.48
2022-12-04T19:03:20.059Z,92.34
2022-12-04T19:08:22.266Z,92.21
2022-12-04T19:13:24.462Z,92.40
2022-12-04T19:18:26.896Z,91.98
2022-12-04T19:23:29.105Z,91.88
2022-12-04T19:28:31.346Z,91.89
2022-12-04T19:33:33.646Z,92.10
2022-12-04T19:38:35.949Z,92.34
2022-12-04T19:43:40.488Z,92.06
2022-12-04T19:48:45.179Z,91.98
2022-12-04T19:53:49.049Z,92.32
2022-12-04T19:58:56.416Z,92.47
2022-12-04T20:04:02.452Z,92.55
2022-12-04T20:09:08.805Z,92.06
2022-12-04T20:14:11.101Z,92.50
2022-12-04T20:19:15.695Z,92.47
2022-12-04T20:24:18.244Z,92.57
2022-12-04T20:29:21.631Z,92.80
2022-12-04T20:34:23.920Z,92.52
2022-12-04T20:39:26.299Z,92.59
2022-12-04T20:44:28.640Z,92.42
2022-12-04T20:49:30.937Z,92.18
2022-12-04T20:54:39.414Z,92.45
2022-12-04T20:59:43.650Z,92.40
2022-12-04T21:04:45.895Z,91.93
2022-12-04T21:09:48.231Z,92.17
2022-12-04T21:15:08.999Z,92.25
2022-12-04T21:20:11.957Z,92.02
2022-12-04T21:25:14.389Z,92.04
2022-12-04T21:30:16.713Z,92.08
2022-12-04T21:35:18.969Z,92.36
2022-12-04T21:40:21.250Z,91.93
2022-12-04T21:45:23.521Z,92.42
2022-12-04T21:50:25.823Z,91.90
2022-12-04T21:55:28.094Z,91.87
2022-12-04T22:00:30.325Z,92.11
2022-12-04T22:05:32.930Z,92.17
2022-12-04T22:10:44.056Z,92.05
2022-12-04T22:15:46.433Z,92.48
2022-12-04T22:20:50.394Z,92.24
2022-12-04T22:25:52.600Z,92.22
2022-12-04T22:30:54.921Z,92.25
2022-12-04T22:36:05.010Z,92.02
2022-12-04T22:41:11.684Z,92.16
2022-12-04T22:46:14.814Z,92.15
2022-12-04T22:51:20.617Z,92.29
2022-12-04T22:56:28.503Z,92.09
2022-12-04T23:01:33.052Z,92.39
2022-12-04T23:06:35.707Z,92.63
2022-12-04T23:11:39.275Z,92.33
2022-12-04T23:16:42.242Z,92.43
2022-12-04T23:21:44.749Z,92.20
